Time;durP1;ratioP1;P1;durP2;ratioP2;P2;SDS_P1;SDS_P2;PMS_P1;PMS_P2;Temp;Humidity;BMP_temperature;BMP_pressure;BME280_temperature;BME280_humidity;BME280_pressure;Samples;Min_cycle;Max_cycle;Signal;HPM_P1;HPM_P2
2023/09/13 00:01:15;;;;;;;0.10;0.10;;;;;;;;;;5021427;28;20030;-85
2023/09/13 00:03:41;;;;;;;0.13;0.13;;;;;;;;;;5011869;28;20051;-85
2023/09/13 00:06:07;;;;;;;0.10;0.10;;;;;;;;;;5023387;28;20037;-85
2023/09/13 00:08:33;;;;;;;0.17;0.17;;;;;;;;;;5023262;28;20049;-86
2023/09/13 00:11:03;;;;;;;0.20;0.20;;;;;;;;;;5041121;28;20045;-87
2023/09/13 00:13:29;;;;;;;0.10;0.10;;;;;;;;;;5040726;28;20087;-87
2023/09/13 00:15:55;;;;;;;0.17;0.17;;;;;;;;;;5039730;28;20076;-87
2023/09/13 00:18:21;;;;;;;0.10;0.10;;;;;;;;;;5039123;28;20021;-87
2023/09/13 00:20:47;;;;;;;0.10;0.10;;;;;;;;;;5040922;28;20042;-87
2023/09/13 00:23:14;;;;;;;0.10;0.10;;;;;;;;;;5024365;28;20509;-88
2023/09/13 00:25:40;;;;;;;0.00;0.00;;;;;;;;;;5022786;28;20037;-86
2023/09/13 00:28:06;;;;;;;0.13;0.13;;;;;;;;;;5022143;28;20052;-87
2023/09/13 00:30:32;;;;;;;0.10;0.10;;;;;;;;;;5039869;28;20433;-86
2023/09/13 00:32:58;;;;;;;0.20;0.20;;;;;;;;;;5005979;28;20081;-87
2023/09/13 00:35:24;;;;;;;0.10;0.10;;;;;;;;;;5019522;28;20502;-87
2023/09/13 00:37:51;;;;;;;0.15;0.15;;;;;;;;;;5019403;28;20048;-87
2023/09/13 00:40:18;;;;;;;0.10;0.10;;;;;;;;;;5023741;28;20044;-87
2023/09/13 00:42:44;;;;;;;0.10;0.10;;;;;;;;;;5032273;28;20047;-87
2023/09/13 00:45:11;;;;;;;0.13;0.13;;;;;;;;;;5022722;28;20029;-87
2023/09/13 00:47:37;;;;;;;0.15;0.15;;;;;;;;;;5022493;28;20104;-86
2023/09/13 00:50:04;;;;;;;0.10;0.10;;;;;;;;;;5038410;28;20059;-86
2023/09/13 00:52:30;;;;;;;0.20;0.20;;;;;;;;;;5022811;28;20510;-88
2023/09/13 00:54:56;;;;;;;0.15;0.15;;;;;;;;;;5038720;28;20529;-87
2023/09/13 00:57:22;;;;;;;0.08;0.08;;;;;;;;;;5045883;28;20065;-87
2023/09/13 00:59:49;;;;;;;0.28;0.28;;;;;;;;;;5039999;28;20113;-87
2023/09/13 01:02:15;;;;;;;0.10;0.10;;;;;;;;;;5033533;28;20126;-87
2023/09/13 01:04:41;;;;;;;0.10;0.10;;;;;;;;;;5039770;28;20124;-89
2023/09/13 01:07:11;;;;;;;0.30;0.30;;;;;;;;;;5039162;28;20037;-87
2023/09/13 01:09:37;;;;;;;0.20;0.20;;;;;;;;;;5039361;28;20034;-87
2023/09/13 01:12:03;;;;;;;0.10;0.10;;;;;;;;;;5039493;28;20080;-87
2023/09/13 01:14:29;;;;;;;0.20;0.20;;;;;;;;;;5038854;28;20033;-87
2023/09/13 01:17:01;;;;;;;0.13;0.13;;;;;;;;;;5038249;28;20041;-86
2023/09/13 01:19:43;;;;;;;0.20;0.20;;;;;;;;;;5021409;28;20475;-87
2023/09/13 01:22:39;;;;;;;0.20;0.20;;;;;;;;;;5038530;28;20041;-86
2023/09/13 01:25:23;;;;;;;0.10;0.10;;;;;;;;;;4990471;28;20050;-86
2023/09/13 01:27:56;;;;;;;0.13;0.13;;;;;;;;;;5031195;28;20041;-87
2023/09/13 01:30:23;;;;;;;0.10;0.10;;;;;;;;;;5021335;28;20044;-87
2023/09/13 01:32:51;;;;;;;0.10;0.10;;;;;;;;;;5037484;28;20064;-87
2023/09/13 01:35:17;;;;;;;0.20;0.20;;;;;;;;;;5037233;28;20040;-87
2023/09/13 01:37:44;;;;;;;0.10;0.10;;;;;;;;;;5020497;28;20088;-87
2023/09/13 01:40:10;;;;;;;0.10;0.10;;;;;;;;;;5022479;28;20552;-86
2023/09/13 01:42:41;;;;;;;0.10;0.10;;;;;;;;;;5037849;28;20032;-87
2023/09/13 01:45:09;;;;;;;0.10;0.10;;;;;;;;;;5038163;28;20037;-86
2023/09/13 01:47:36;;;;;;;0.10;0.10;;;;;;;;;;5021870;28;20044;-87
2023/09/13 01:50:02;;;;;;;0.10;0.10;;;;;;;;;;5037505;28;20037;-87
2023/09/13 01:52:29;;;;;;;0.10;0.10;;;;;;;;;;5037581;28;20083;-87
2023/09/13 01:54:55;;;;;;;0.10;0.10;;;;;;;;;;5037175;28;20052;-87
2023/09/13 01:57:21;;;;;;;0.30;0.30;;;;;;;;;;5037598;28;20041;-86
2023/09/13 01:59:47;;;;;;;0.08;0.08;;;;;;;;;;5036868;28;20053;-87
2023/09/13 02:02:13;;;;;;;0.20;0.20;;;;;;;;;;5035816;28;20041;-85
2023/09/13 02:04:39;;;;;;;0.00;0.00;;;;;;;;;;5036312;28;20564;-85
2023/09/13 02:07:05;;;;;;;0.10;0.10;;;;;;;;;;5037129;28;20052;-87
2023/09/13 02:09:31;;;;;;;0.20;0.20;;;;;;;;;;5036895;28;20046;-87
2023/09/13 02:11:57;;;;;;;0.10;0.10;;;;;;;;;;5024238;28;20048;-87
2023/09/13 02:14:23;;;;;;;0.03;0.03;;;;;;;;;;5041536;28;20042;-87
2023/09/13 02:16:49;;;;;;;0.10;0.10;;;;;;;;;;5041604;28;20410;-87
2023/09/13 02:19:15;;;;;;;0.10;0.10;;;;;;;;;;5041479;28;20490;-87
2023/09/13 02:21:41;;;;;;;0.00;0.00;;;;;;;;;;5042138;28;20041;-87
2023/09/13 02:24:08;;;;;;;0.10;0.10;;;;;;;;;;5042321;28;20044;-87
2023/09/13 02:26:36;;;;;;;0.00;0.00;;;;;;;;;;5041852;28;20044;-87
2023/09/13 02:29:03;;;;;;;0.10;0.10;;;;;;;;;;5040353;28;20041;-87
2023/09/13 02:31:29;;;;;;;0.17;0.17;;;;;;;;;;5024181;28;20406;-87
2023/09/13 02:33:55;;;;;;;0.10;0.10;;;;;;;;;;5024682;28;20045;-88
2023/09/13 02:36:24;;;;;;;0.20;0.20;;;;;;;;;;5041887;28;20390;-87
2023/09/13 02:38:51;;;;;;;0.10;0.10;;;;;;;;;;5024256;28;20036;-87
2023/09/13 02:41:17;;;;;;;0.10;0.10;;;;;;;;;;5023595;28;20041;-86
2023/09/13 02:43:43;;;;;;;0.20;0.20;;;;;;;;;;5024731;28;20044;-88
2023/09/13 02:46:09;;;;;;;0.20;0.20;;;;;;;;;;5024636;28;20124;-87
2023/09/13 02:48:36;;;;;;;0.10;0.10;;;;;;;;;;5023447;28;20148;-87
2023/09/13 02:51:02;;;;;;;0.10;0.10;;;;;;;;;;5032259;28;20049;-87
2023/09/13 02:53:28;;;;;;;0.10;0.10;;;;;;;;;;5004028;28;20068;-88
2023/09/13 02:56:03;;;;;;;0.20;0.20;;;;;;;;;;5005390;28;20048;-88
2023/09/13 02:58:29;;;;;;;0.20;0.20;;;;;;;;;;5020605;28;20129;-88
2023/09/13 03:00:56;;;;;;;0.10;0.10;;;;;;;;;;5004949;28;20077;-88
2023/09/13 03:03:23;;;;;;;0.13;0.13;;;;;;;;;;5004666;28;20041;-88
2023/09/13 03:05:49;;;;;;;0.10;0.10;;;;;;;;;;5005221;28;20409;-87
2023/09/13 03:08:15;;;;;;;0.20;0.20;;;;;;;;;;5004997;28;20081;-88
2023/09/13 03:10:41;;;;;;;0.10;0.10;;;;;;;;;;5004935;28;20052;-87
2023/09/13 03:13:07;;;;;;;0.20;0.20;;;;;;;;;;5023087;28;20077;-87
2023/09/13 03:15:33;;;;;;;0.10;0.10;;;;;;;;;;5040404;28;20569;-87
2023/09/13 03:17:59;;;;;;;0.15;0.15;;;;;;;;;;5040142;28;20132;-87
2023/09/13 03:20:25;;;;;;;0.08;0.08;;;;;;;;;;5040336;28;20556;-87
2023/09/13 03:22:51;;;;;;;0.05;0.05;;;;;;;;;;5039997;28;20037;-88
2023/09/13 03:25:17;;;;;;;0.25;0.25;;;;;;;;;;5039184;28;20049;-88
2023/09/13 03:27:43;;;;;;;0.10;0.10;;;;;;;;;;5039871;28;20041;-87
2023/09/13 03:30:10;;;;;;;0.10;0.10;;;;;;;;;;5039379;28;20064;-87
2023/09/13 03:32:36;;;;;;;0.13;0.13;;;;;;;;;;5039774;28;20038;-87
2023/09/13 03:35:02;;;;;;;0.20;0.20;;;;;;;;;;5030729;28;20068;-86
2023/09/13 03:37:28;;;;;;;0.20;0.20;;;;;;;;;;5019627;28;20384;-87
2023/09/13 03:39:54;;;;;;;0.10;0.10;;;;;;;;;;5019870;28;20038;-87
2023/09/13 03:42:20;;;;;;;0.00;0.00;;;;;;;;;;5020434;28;20095;-87
2023/09/13 03:44:46;;;;;;;0.20;0.20;;;;;;;;;;5019967;28;20051;-87
2023/09/13 03:47:12;;;;;;;0.10;0.10;;;;;;;;;;5020010;28;20061;-88
2023/09/13 03:49:38;;;;;;;0.05;0.05;;;;;;;;;;5019530;28;20040;-88
2023/09/13 03:52:05;;;;;;;0.10;0.10;;;;;;;;;;5020130;28;20490;-88
2023/09/13 03:54:32;;;;;;;0.00;0.00;;;;;;;;;;5038817;28;20088;-88
2023/09/13 03:56:58;;;;;;;0.22;0.22;;;;;;;;;;5022928;28;20044;-88
2023/09/13 03:59:24;;;;;;;0.10;0.10;;;;;;;;;;5020199;28;20076;-87
2023/09/13 04:01:50;;;;;;;0.10;0.10;;;;;;;;;;5006180;28;20045;-88
2023/09/13 04:04:16;;;;;;;0.20;0.20;;;;;;;;;;5018666;28;20038;-88
2023/09/13 04:06:44;;;;;;;0.10;0.10;;;;;;;;;;5013494;28;20033;-87
2023/09/13 04:09:10;;;;;;;0.10;0.10;;;;;;;;;;5038299;28;20041;-88
2023/09/13 04:11:36;;;;;;;0.10;0.10;;;;;;;;;;5026878;28;20069;-88
2023/09/13 04:14:02;;;;;;;0.17;0.17;;;;;;;;;;5003424;28;20545;-88
2023/09/13 04:16:28;;;;;;;0.20;0.20;;;;;;;;;;5004293;28;20042;-87
2023/09/13 04:18:54;;;;;;;0.00;0.00;;;;;;;;;;5003260;28;20120;-87
2023/09/13 04:21:20;;;;;;;0.10;0.10;;;;;;;;;;5004049;28;20053;-88
2023/09/13 04:23:46;;;;;;;0.20;0.20;;;;;;;;;;5003377;28;20042;-88
2023/09/13 04:26:15;;;;;;;0.10;0.10;;;;;;;;;;5003235;28;20046;-88
2023/09/13 04:28:41;;;;;;;0.10;0.10;;;;;;;;;;5001704;28;20391;-88
2023/09/13 04:31:07;;;;;;;0.10;0.10;;;;;;;;;;5003533;28;20045;-88
2023/09/13 04:33:44;;;;;;;0.20;0.20;;;;;;;;;;5001989;28;20380;-89
2023/09/13 04:36:10;;;;;;;0.10;0.10;;;;;;;;;;5003454;28;20038;-88
2023/09/13 04:38:36;;;;;;;0.20;0.20;;;;;;;;;;5003619;28;20111;-88
2023/09/13 04:41:05;;;;;;;0.15;0.15;;;;;;;;;;5002751;28;20147;-86
2023/09/13 04:43:31;;;;;;;0.10;0.10;;;;;;;;;;5018399;28;20030;-88
2023/09/13 04:45:57;;;;;;;0.10;0.10;;;;;;;;;;5002940;28;20080;-88
2023/09/13 04:48:23;;;;;;;0.10;0.10;;;;;;;;;;5001563;28;20148;-89
2023/09/13 04:50:49;;;;;;;0.10;0.10;;;;;;;;;;5001608;28;20046;-90
2023/09/13 04:53:16;;;;;;;0.15;0.15;;;;;;;;;;5018557;28;20042;-94
2023/09/13 04:55:48;;;;;;;0.00;0.00;;;;;;;;;;5034786;28;20045;-94
2023/09/13 04:58:14;;;;;;;0.10;0.10;;;;;;;;;;5025363;28;20522;-93
2023/09/13 05:00:40;;;;;;;0.30;0.30;;;;;;;;;;5005845;28;20038;-92
2023/09/13 05:03:06;;;;;;;0.30;0.30;;;;;;;;;;5004247;28;20564;-94
2023/09/13 05:05:32;;;;;;;0.17;0.17;;;;;;;;;;5005605;28;20046;-93
2023/09/13 05:07:58;;;;;;;0.00;0.00;;;;;;;;;;5004350;28;20042;-91
2023/09/13 05:10:24;;;;;;;0.10;0.10;;;;;;;;;;5004782;28;20482;-93
2023/09/13 05:12:50;;;;;;;0.20;0.20;;;;;;;;;;5021976;28;20065;-92
2023/09/13 05:15:16;;;;;;;0.10;0.10;;;;;;;;;;5006126;28;20037;-92
2023/09/13 05:17:42;;;;;;;0.00;0.00;;;;;;;;;;5005560;28;20046;-94
2023/09/13 05:20:08;;;;;;;0.10;0.10;;;;;;;;;;5006138;28;20050;-94
2023/09/13 05:22:36;;;;;;;0.20;0.20;;;;;;;;;;5022653;28;20074;-92
2023/09/13 05:25:02;;;;;;;0.30;0.30;;;;;;;;;;5003892;28;20034;-92
2023/09/13 05:27:28;;;;;;;0.22;0.22;;;;;;;;;;5005411;28;20092;-93
2023/09/13 05:29:55;;;;;;;0.32;0.32;;;;;;;;;;5003840;28;20088;-92
2023/09/13 05:32:21;;;;;;;0.20;0.20;;;;;;;;;;5012378;28;20410;-94
2023/09/13 05:34:47;;;;;;;0.10;0.10;;;;;;;;;;5023127;28;20397;-91
2023/09/13 05:37:13;;;;;;;0.20;0.20;;;;;;;;;;5022221;28;20044;-91
2023/09/13 05:39:40;;;;;;;0.20;0.20;;;;;;;;;;5021924;28;20045;-91
2023/09/13 05:42:06;;;;;;;0.20;0.20;;;;;;;;;;5022517;28;20038;-91
2023/09/13 05:44:33;;;;;;;0.20;0.20;;;;;;;;;;5021072;28;20038;-91
2023/09/13 05:46:59;;;;;;;0.13;0.13;;;;;;;;;;5022088;28;20093;-88
2023/09/13 05:49:25;;;;;;;0.10;0.10;;;;;;;;;;5016415;28;20042;-89
2023/09/13 05:51:51;;;;;;;0.20;0.20;;;;;;;;;;5017442;28;20053;-88
2023/09/13 05:54:17;;;;;;;0.20;0.20;;;;;;;;;;5000755;28;20052;-89
2023/09/13 05:56:43;;;;;;;0.20;0.20;;;;;;;;;;5017869;28;20414;-88
2023/09/13 05:59:09;;;;;;;0.20;0.20;;;;;;;;;;5017719;28;20018;-88
2023/09/13 06:01:36;;;;;;;0.20;0.20;;;;;;;;;;5001447;28;20046;-87
2023/09/13 06:04:03;;;;;;;0.15;0.15;;;;;;;;;;5000693;28;20045;-89
2023/09/13 06:06:29;;;;;;;0.20;0.20;;;;;;;;;;5017261;28;20406;-87
2023/09/13 06:08:57;;;;;;;0.20;0.20;;;;;;;;;;5001331;28;20483;-87
2023/09/13 06:11:23;;;;;;;0.13;0.13;;;;;;;;;;5001424;28;20105;-88
2023/09/13 06:13:49;;;;;;;0.10;0.10;;;;;;;;;;5017612;28;20117;-88
2023/09/13 06:16:15;;;;;;;0.13;0.13;;;;;;;;;;5020573;28;20061;-88
2023/09/13 06:18:41;;;;;;;0.20;0.20;;;;;;;;;;5020140;28;20052;-88
2023/09/13 06:21:07;;;;;;;0.15;0.15;;;;;;;;;;5029556;28;20108;-88
2023/09/13 06:23:35;;;;;;;0.20;0.20;;;;;;;;;;5031828;28;20121;-87
2023/09/13 06:26:02;;;;;;;0.20;0.20;;;;;;;;;;5020883;28;20107;-88
2023/09/13 06:28:28;;;;;;;0.20;0.20;;;;;;;;;;5020693;28;20505;-89
2023/09/13 06:30:54;;;;;;;0.20;0.20;;;;;;;;;;5022394;28;20486;-89
2023/09/13 06:33:20;;;;;;;0.20;0.20;;;;;;;;;;5039120;28;20379;-88
2023/09/13 06:35:46;;;;;;;0.20;0.20;;;;;;;;;;5021965;28;20045;-89
2023/09/13 06:38:13;;;;;;;0.20;0.20;;;;;;;;;;5037975;28;20041;-89
2023/09/13 06:40:42;;;;;;;0.30;0.30;;;;;;;;;;5021749;28;20053;-89
2023/09/13 06:43:10;;;;;;;0.10;0.10;;;;;;;;;;5021710;28;20140;-91
2023/09/13 06:45:36;;;;;;;0.10;0.10;;;;;;;;;;5023029;28;20132;-91
2023/09/13 06:48:02;;;;;;;0.30;0.30;;;;;;;;;;5019754;28;20044;-91
2023/09/13 06:50:28;;;;;;;0.30;0.30;;;;;;;;;;5002901;28;20048;-90
2023/09/13 06:52:57;;;;;;;0.10;0.10;;;;;;;;;;5002712;28;20491;-91
2023/09/13 06:55:23;;;;;;;0.20;0.20;;;;;;;;;;5015302;28;20103;-88
2023/09/13 06:57:51;;;;;;;0.20;0.20;;;;;;;;;;5040018;28;20037;-89
2023/09/13 07:00:17;;;;;;;0.20;0.20;;;;;;;;;;5040082;28;20044;-89
2023/09/13 07:02:45;;;;;;;0.30;0.30;;;;;;;;;;5017239;28;20045;-89
2023/09/13 07:05:11;;;;;;;0.10;0.10;;;;;;;;;;5038631;28;20093;-89
2023/09/13 07:07:37;;;;;;;0.20;0.20;;;;;;;;;;5037341;28;20046;-89
2023/09/13 07:10:03;;;;;;;0.30;0.30;;;;;;;;;;5020996;28;20533;-89
2023/09/13 07:12:30;;;;;;;0.20;0.20;;;;;;;;;;5031797;28;20422;-88
2023/09/13 07:14:56;;;;;;;0.25;0.25;;;;;;;;;;5022028;28;20052;-92
2023/09/13 07:17:22;;;;;;;0.20;0.20;;;;;;;;;;5021704;28;20144;-91
2023/09/13 07:19:49;;;;;;;0.20;0.20;;;;;;;;;;5024522;28;20513;-91
2023/09/13 07:22:15;;;;;;;0.20;0.20;;;;;;;;;;5023964;28;20043;-90
2023/09/13 07:24:41;;;;;;;0.22;0.22;;;;;;;;;;5020289;28;20105;-91
2023/09/13 07:27:10;;;;;;;0.30;0.30;;;;;;;;;;5024158;28;20093;-90
2023/09/13 07:29:36;;;;;;;0.22;0.22;;;;;;;;;;5022855;28;20037;-91
2023/09/13 07:32:02;;;;;;;0.25;0.25;;;;;;;;;;5023395;28;20048;-93
2023/09/13 07:34:29;;;;;;;0.20;0.20;;;;;;;;;;5023735;28;20041;-89
2023/09/13 07:36:55;;;;;;;0.30;0.30;;;;;;;;;;5019786;28;20045;-90
2023/09/13 07:39:22;;;;;;;0.30;0.30;;;;;;;;;;5021698;28;20041;-90
2023/09/13 07:41:48;;;;;;;0.30;0.30;;;;;;;;;;5039889;28;20030;-89
2023/09/13 07:44:16;;;;;;;0.25;0.25;;;;;;;;;;5025567;28;20037;-91
2023/09/13 07:46:42;;;;;;;0.10;0.10;;;;;;;;;;5040549;28;20046;-89
2023/09/13 07:49:09;;;;;;;0.10;0.10;;;;;;;;;;5036338;28;20573;-91
2023/09/13 07:51:35;;;;;;;0.20;0.20;;;;;;;;;;5025850;28;20038;-91
2023/09/13 07:54:07;;;;;;;0.20;0.20;;;;;;;;;;5025130;28;20100;-91
2023/09/13 07:56:49;;;;;;;0.28;0.28;;;;;;;;;;5033256;28;20073;-92
2023/09/13 07:59:18;;;;;;;0.20;0.20;;;;;;;;;;5038332;28;20052;-93
2023/09/13 08:01:51;;;;;;;0.30;0.30;;;;;;;;;;5041318;28;20045;-90
2023/09/13 08:04:18;;;;;;;0.10;0.10;;;;;;;;;;5030538;28;20018;-91
2023/09/13 08:06:45;;;;;;;0.10;0.10;;;;;;;;;;5042801;28;20104;-90
2023/09/13 08:09:14;;;;;;;0.20;0.20;;;;;;;;;;5039842;28;20033;-89
2023/09/13 08:11:40;;;;;;;0.20;0.20;;;;;;;;;;5039019;28;20076;-93
2023/09/13 08:14:06;;;;;;;0.10;0.10;;;;;;;;;;5030261;28;20068;-92
2023/09/13 08:16:32;;;;;;;0.10;0.10;;;;;;;;;;5024834;28;20065;-91
2023/09/13 08:18:58;;;;;;;0.10;0.10;;;;;;;;;;5036194;28;20482;-92
2023/09/13 08:21:24;;;;;;;0.10;0.10;;;;;;;;;;5022442;28;20037;-93
2023/09/13 08:23:55;;;;;;;0.20;0.20;;;;;;;;;;5025753;28;20783;-89
2023/09/13 08:26:21;;;;;;;0.10;0.10;;;;;;;;;;5024025;28;20111;-92
2023/09/13 08:28:49;;;;;;;0.10;0.10;;;;;;;;;;5038238;28;20088;-95
2023/09/13 08:31:19;;;;;;;0.20;0.20;;;;;;;;;;5011562;28;20055;-96
2023/09/13 08:33:46;;;;;;;0.28;0.28;;;;;;;;;;5043368;28;20062;-92
2023/09/13 08:36:12;;;;;;;0.17;0.17;;;;;;;;;;5042068;28;20053;-91
2023/09/13 08:38:38;;;;;;;0.20;0.20;;;;;;;;;;5041871;28;20040;-92
2023/09/13 08:41:05;;;;;;;0.20;0.20;;;;;;;;;;5042408;28;20045;-93
2023/09/13 08:43:32;;;;;;;0.15;0.15;;;;;;;;;;5045638;28;20045;-91
2023/09/13 08:46:00;;;;;;;0.20;0.20;;;;;;;;;;5042712;28;20049;-96
2023/09/13 08:48:26;;;;;;;0.10;0.10;;;;;;;;;;5042063;28;20109;-94
2023/09/13 08:50:52;;;;;;;0.20;0.20;;;;;;;;;;5043633;28;20105;-94
2023/09/13 08:53:19;;;;;;;0.20;0.20;;;;;;;;;;5025930;28;20494;-94
2023/09/13 08:55:46;;;;;;;0.10;0.10;;;;;;;;;;5027071;28;20059;-92
2023/09/13 08:58:12;;;;;;;0.10;0.10;;;;;;;;;;5024854;28;20041;-94
2023/09/13 09:00:40;;;;;;;0.10;0.10;;;;;;;;;;5024958;28;20033;-92
2023/09/13 09:03:08;;;;;;;0.20;0.20;;;;;;;;;;5020095;28;20037;-94
2023/09/13 09:05:36;;;;;;;0.20;0.20;;;;;;;;;;5043799;28;20068;-91
2023/09/13 09:08:03;;;;;;;0.13;0.13;;;;;;;;;;5020467;28;20438;-91
2023/09/13 09:10:29;;;;;;;0.15;0.15;;;;;;;;;;5034796;28;20037;-92
2023/09/13 09:12:57;;;;;;;0.13;0.13;;;;;;;;;;5019070;28;20046;-91
2023/09/13 09:15:23;;;;;;;0.25;0.25;;;;;;;;;;5023928;28;20057;-93
2023/09/13 09:17:50;;;;;;;0.10;0.10;;;;;;;;;;5017774;28;20052;-84
2023/09/13 09:20:16;;;;;;;0.00;0.00;;;;;;;;;;5032884;28;20037;-84
2023/09/13 09:22:42;;;;;;;0.20;0.20;;;;;;;;;;5033268;28;20071;-84
2023/09/13 09:25:12;;;;;;;0.10;0.10;;;;;;;;;;5016774;28;20033;-84
2023/09/13 09:27:42;;;;;;;0.10;0.10;;;;;;;;;;5029805;28;20036;-85
2023/09/13 09:30:14;;;;;;;0.10;0.10;;;;;;;;;;5034852;28;20041;-84
2023/09/13 09:32:40;;;;;;;0.03;0.03;;;;;;;;;;5016687;28;20048;-85
2023/09/13 09:35:06;;;;;;;0.20;0.20;;;;;;;;;;5018870;28;20044;-83
2023/09/13 09:37:33;;;;;;;0.20;0.20;;;;;;;;;;5034281;28;20041;-83
2023/09/13 09:39:59;;;;;;;0.20;0.20;;;;;;;;;;5036625;28;20037;-90
2023/09/13 09:42:26;;;;;;;0.20;0.20;;;;;;;;;;5006839;28;20136;-92
2023/09/13 09:44:52;;;;;;;0.10;0.10;;;;;;;;;;5023387;28;20042;-93
2023/09/13 09:47:19;;;;;;;0.20;0.20;;;;;;;;;;5022119;28;20041;-90
2023/09/13 09:49:52;;;;;;;0.20;0.20;;;;;;;;;;5022119;28;20041;-89
2023/09/13 09:52:18;;;;;;;0.15;0.15;;;;;;;;;;5021744;28;20045;-89
2023/09/13 09:54:49;;;;;;;0.25;0.25;;;;;;;;;;5020149;28;20045;-90
2023/09/13 09:57:26;;;;;;;0.20;0.20;;;;;;;;;;5026875;28;20029;-88
2023/09/13 09:59:52;;;;;;;0.10;0.10;;;;;;;;;;5056197;28;20037;-89
2023/09/13 10:02:25;;;;;;;0.05;0.05;;;;;;;;;;5058279;28;20045;-89
2023/09/13 10:04:51;;;;;;;0.20;0.20;;;;;;;;;;5057902;28;20036;-89
2023/09/13 10:07:17;;;;;;;0.20;0.20;;;;;;;;;;5057355;28;20049;-89
2023/09/13 10:09:44;;;;;;;0.20;0.20;;;;;;;;;;5057072;28;20097;-89
2023/09/13 10:12:11;;;;;;;0.20;0.20;;;;;;;;;;5057357;28;20040;-89
2023/09/13 10:14:38;;;;;;;0.20;0.20;;;;;;;;;;5057643;28;20045;-89
2023/09/13 10:17:05;;;;;;;0.20;0.20;;;;;;;;;;5056069;28;20044;-89
2023/09/13 10:19:31;;;;;;;0.20;0.20;;;;;;;;;;5020176;28;20041;-88
2023/09/13 10:21:57;;;;;;;0.10;0.10;;;;;;;;;;5019838;28;20052;-90
2023/09/13 10:24:25;;;;;;;0.03;0.03;;;;;;;;;;5021515;28;20070;-89
2023/09/13 10:26:54;;;;;;;0.00;0.00;;;;;;;;;;5020874;28;20125;-90
2023/09/13 10:29:33;;;;;;;0.10;0.10;;;;;;;;;;5020921;28;20124;-89
2023/09/13 10:32:02;;;;;;;0.10;0.10;;;;;;;;;;5023678;28;20073;-90
2023/09/13 10:34:29;;;;;;;0.10;0.10;;;;;;;;;;5041664;28;20080;-90
2023/09/13 10:37:16;;;;;;;0.30;0.30;;;;;;;;;;5025870;28;20041;-91
2023/09/13 10:39:51;;;;;;;0.00;0.00;;;;;;;;;;5021884;28;20084;-91
2023/09/13 10:42:18;;;;;;;0.10;0.10;;;;;;;;;;5025787;28;20077;-91
2023/09/13 10:44:45;;;;;;;0.17;0.17;;;;;;;;;;5026534;28;20045;-91
2023/09/13 10:47:12;;;;;;;0.30;0.30;;;;;;;;;;5028075;28;20068;-89
2023/09/13 10:49:38;;;;;;;0.10;0.10;;;;;;;;;;5062126;28;20094;-90
2023/09/13 10:52:05;;;;;;;0.20;0.20;;;;;;;;;;5062285;28;20099;-91
2023/09/13 10:54:31;;;;;;;0.30;0.30;;;;;;;;;;5048412;28;20081;-90
2023/09/13 10:56:58;;;;;;;0.17;0.17;;;;;;;;;;5025145;28;20041;-90
2023/09/13 10:59:25;;;;;;;0.20;0.20;;;;;;;;;;5024299;28;20053;-89
2023/09/13 11:01:51;;;;;;;0.20;0.20;;;;;;;;;;5040763;28;20056;-89
2023/09/13 11:04:18;;;;;;;0.20;0.20;;;;;;;;;;5026068;28;20041;-89
2023/09/13 11:06:45;;;;;;;0.15;0.15;;;;;;;;;;5026679;28;20057;-92
2023/09/13 11:09:11;;;;;;;0.15;0.15;;;;;;;;;;5026381;28;20042;-90
2023/09/13 11:11:37;;;;;;;0.30;0.30;;;;;;;;;;5026743;28;20029;-88
2023/09/13 11:14:09;;;;;;;0.13;0.13;;;;;;;;;;5025786;28;20129;-88
2023/09/13 11:16:36;;;;;;;0.15;0.15;;;;;;;;;;5025744;28;20033;-91
2023/09/13 11:19:04;;;;;;;0.10;0.10;;;;;;;;;;5025332;28;20049;-89
2023/09/13 11:21:45;;;;;;;0.10;0.10;;;;;;;;;;5023576;28;20045;-88
2023/09/13 11:24:12;;;;;;;0.30;0.30;;;;;;;;;;5041622;28;20033;-89
2023/09/13 11:26:54;;;;;;;0.10;0.10;;;;;;;;;;5024178;28;20065;-89
2023/09/13 11:29:22;;;;;;;0.10;0.10;;;;;;;;;;5025371;28;20053;-89
2023/09/13 11:32:03;;;;;;;0.10;0.10;;;;;;;;;;5024714;28;20041;-88
2023/09/13 11:34:30;;;;;;;0.10;0.10;;;;;;;;;;5024697;28;20577;-88
2023/09/13 11:37:00;;;;;;;0.22;0.22;;;;;;;;;;5025104;28;20041;-90
2023/09/13 11:39:27;;;;;;;0.20;0.20;;;;;;;;;;5025970;28;20547;-91
2023/09/13 11:41:55;;;;;;;0.20;0.20;;;;;;;;;;5024973;28;20049;-89
2023/09/13 11:44:25;;;;;;;0.20;0.20;;;;;;;;;;5023959;28;20037;-89
2023/09/13 11:46:52;;;;;;;0.10;0.10;;;;;;;;;;5025100;28;20041;-91
2023/09/13 11:49:22;;;;;;;0.15;0.15;;;;;;;;;;5024745;28;20037;-91
2023/09/13 11:51:55;;;;;;;0.10;0.10;;;;;;;;;;5025166;28;20033;-91
2023/09/13 11:54:22;;;;;;;0.20;0.20;;;;;;;;;;5040380;28;20060;-91
2023/09/13 11:56:53;;;;;;;0.30;0.30;;;;;;;;;;5041290;28;20410;-93
2023/09/13 11:59:25;;;;;;;0.17;0.17;;;;;;;;;;5024511;28;20094;-89
2023/09/13 12:01:52;;;;;;;0.10;0.10;;;;;;;;;;5024119;28;20041;-88
2023/09/13 12:04:20;;;;;;;0.10;0.10;;;;;;;;;;5023159;28;20037;-91
2023/09/13 12:06:51;;;;;;;0.10;0.10;;;;;;;;;;5024424;28;20046;-90
2023/09/13 12:09:20;;;;;;;0.10;0.10;;;;;;;;;;5039539;28;20041;-88
2023/09/13 12:11:50;;;;;;;0.10;0.10;;;;;;;;;;5023316;28;20080;-88
2023/09/13 12:14:17;;;;;;;0.30;0.30;;;;;;;;;;5022664;28;20033;-88
2023/09/13 12:16:43;;;;;;;0.20;0.20;;;;;;;;;;5022317;28;20044;-90
2023/09/13 12:19:12;;;;;;;0.38;0.38;;;;;;;;;;5039833;28;20100;-88
2023/09/13 12:21:42;;;;;;;0.10;0.10;;;;;;;;;;5022369;28;20054;-88
2023/09/13 12:24:12;;;;;;;0.10;0.10;;;;;;;;;;5021635;28;20063;-88
2023/09/13 12:26:38;;;;;;;0.20;0.20;;;;;;;;;;5023069;28;20067;-87
2023/09/13 12:29:05;;;;;;;0.10;0.10;;;;;;;;;;5021413;28;20449;-88
2023/09/13 12:31:31;;;;;;;0.10;0.10;;;;;;;;;;5021543;28;20067;-89
2023/09/13 12:34:01;;;;;;;0.10;0.10;;;;;;;;;;5039026;28;20099;-88
2023/09/13 12:36:27;;;;;;;0.10;0.10;;;;;;;;;;5023357;28;20052;-90
2023/09/13 12:38:55;;;;;;;0.30;0.30;;;;;;;;;;5023493;28;20037;-89
2023/09/13 12:41:22;;;;;;;0.10;0.10;;;;;;;;;;5023251;28;20045;-88
2023/09/13 12:43:48;;;;;;;0.30;0.30;;;;;;;;;;5023238;28;20151;-90
2023/09/13 12:46:22;;;;;;;0.30;0.30;;;;;;;;;;5022905;28;20048;-90
2023/09/13 12:48:49;;;;;;;0.20;0.20;;;;;;;;;;5023070;28;20027;-91
2023/09/13 12:51:17;;;;;;;0.20;0.20;;;;;;;;;;5022728;28;20045;-88
2023/09/13 12:53:44;;;;;;;0.20;0.20;;;;;;;;;;5021054;28;20045;-90
2023/09/13 12:56:11;;;;;;;0.17;0.17;;;;;;;;;;5039595;28;20073;-89
2023/09/13 12:58:53;;;;;;;0.00;0.00;;;;;;;;;;5006488;28;20041;-91
2023/09/13 13:01:20;;;;;;;0.10;0.10;;;;;;;;;;5021881;28;20048;-90
2023/09/13 13:04:05;;;;;;;0.10;0.10;;;;;;;;;;5039241;28;20623;-89
2023/09/13 13:06:36;;;;;;;0.20;0.20;;;;;;;;;;5022041;28;20041;-88
2023/09/13 13:09:09;;;;;;;0.20;0.20;;;;;;;;;;5022136;28;20045;-87
2023/09/13 13:11:37;;;;;;;0.10;0.10;;;;;;;;;;5022192;28;20060;-88
2023/09/13 13:14:03;;;;;;;0.10;0.10;;;;;;;;;;5022650;28;20037;-92
2023/09/13 13:16:29;;;;;;;0.10;0.10;;;;;;;;;;5024804;28;20081;-93
2023/09/13 13:18:56;;;;;;;0.20;0.20;;;;;;;;;;5040667;28;20041;-91
2023/09/13 13:21:27;;;;;;;0.20;0.20;;;;;;;;;;5023983;28;20060;-92
2023/09/13 13:23:53;;;;;;;0.20;0.20;;;;;;;;;;5024322;28;20071;-92
2023/09/13 13:26:19;;;;;;;0.15;0.15;;;;;;;;;;5022878;28;20084;-91
2023/09/13 13:28:47;;;;;;;0.10;0.10;;;;;;;;;;5023096;28;20399;-92
2023/09/13 13:31:31;;;;;;;0.22;0.22;;;;;;;;;;5039670;28;20130;-92
2023/09/13 13:33:57;;;;;;;0.30;0.30;;;;;;;;;;5023600;28;20057;-91
2023/09/13 13:36:23;;;;;;;0.10;0.10;;;;;;;;;;5024566;28;20148;-92
2023/09/13 13:38:49;;;;;;;0.10;0.10;;;;;;;;;;5042385;28;20045;-94
2023/09/13 13:41:17;;;;;;;0.20;0.20;;;;;;;;;;5043193;28;20052;-95
2023/09/13 13:43:43;;;;;;;0.10;0.10;;;;;;;;;;5041914;28;20041;-94
2023/09/13 13:46:15;;;;;;;0.10;0.10;;;;;;;;;;5025094;28;20072;-94
2023/09/13 13:48:43;;;;;;;0.10;0.10;;;;;;;;;;5011904;28;20049;-94
2023/09/13 13:51:12;;;;;;;0.10;0.10;;;;;;;;;;5008037;28;20058;-94
2023/09/13 13:53:39;;;;;;;0.20;0.20;;;;;;;;;;5041786;28;20057;-92
2023/09/13 13:56:06;;;;;;;0.13;0.13;;;;;;;;;;5043587;28;20099;-93
2023/09/13 13:58:32;;;;;;;0.10;0.10;;;;;;;;;;5042821;28;20904;-91
2023/09/13 14:00:59;;;;;;;0.10;0.10;;;;;;;;;;5041811;28;20045;-92
2023/09/13 14:03:25;;;;;;;0.10;0.10;;;;;;;;;;5040631;28;20045;-89
2023/09/13 14:05:52;;;;;;;0.30;0.30;;;;;;;;;;5025161;28;20045;-91
2023/09/13 14:08:22;;;;;;;0.10;0.10;;;;;;;;;;5023410;28;20038;-91
2023/09/13 14:10:48;;;;;;;0.10;0.10;;;;;;;;;;5022456;28;20041;-87
2023/09/13 14:13:16;;;;;;;0.10;0.10;;;;;;;;;;5021690;28;20048;-86
2023/09/13 14:15:42;;;;;;;0.10;0.10;;;;;;;;;;5020845;28;20045;-87
2023/09/13 14:18:08;;;;;;;0.20;0.20;;;;;;;;;;5018839;28;20406;-87
2023/09/13 14:20:41;;;;;;;0.10;0.10;;;;;;;;;;5021736;28;20060;-86
2023/09/13 14:23:11;;;;;;;0.10;0.10;;;;;;;;;;5038169;28;20041;-87
2023/09/13 14:25:37;;;;;;;0.20;0.20;;;;;;;;;;5012010;28;20049;-87
2023/09/13 14:28:03;;;;;;;0.30;0.30;;;;;;;;;;5012376;28;20494;-89
2023/09/13 14:30:29;;;;;;;0.28;0.28;;;;;;;;;;5036572;28;20026;-87
2023/09/13 14:32:55;;;;;;;0.10;0.10;;;;;;;;;;5036794;28;20041;-88
2023/09/13 14:35:22;;;;;;;0.20;0.20;;;;;;;;;;5035920;28;20045;-88
2023/09/13 14:37:50;;;;;;;0.10;0.10;;;;;;;;;;5018597;28;20038;-87
2023/09/13 14:40:16;;;;;;;0.20;0.20;;;;;;;;;;5018949;28;20312;-88
2023/09/13 14:42:42;;;;;;;0.10;0.10;;;;;;;;;;5020159;28;20076;-87
2023/09/13 14:45:08;;;;;;;0.30;0.30;;;;;;;;;;5019169;28;20091;-88